createdAt,value
2017-08-01T00:00:27.838Z,93.48
2017-08-01T00:01:27.876Z,93.76
2017-08-01T00:02:27.890Z,94.54
2017-08-01T00:03:27.922Z,94.06
2017-08-01T00:04:27.950Z,95.11
2017-08-01T00:07:28.025Z,96.12
2017-08-01T00:08:28.057Z,97.19
2017-08-01T00:09:27.758Z,96.99
2017-08-01T00:10:27.799Z,96.99
2017-08-01T00:11:27.826Z,96.7
2017-08-01T00:12:28.158Z,96.61
2017-08-01T00:13:28.179Z,96.8
2017-08-01T00:14:28.210Z,97.28
2017-08-01T00:15:28.244Z,97.86
2017-08-01T00:16:28.264Z,97.28
2017-08-01T00:17:28.289Z,97.28
2017-08-01T00:18:28.309Z,97.28
2017-08-01T00:19:28.343Z,96.61
2017-08-01T00:20:28.058Z,97.28
2017-08-01T00:21:28.386Z,97.09
2017-08-01T00:22:28.421Z,97.19
2017-08-01T00:23:28.435Z,97.38
2017-08-01T00:24:28.504Z,97.09
2017-08-01T00:26:43.122Z,97.38
2017-08-01T00:27:28.540Z,98.44
2017-08-01T00:28:28.585Z,97.28
2017-08-01T00:29:28.603Z,97.09
2017-08-01T00:30:28.631Z,97.09
2017-08-01T00:31:28.652Z,96.51
2017-08-01T00:32:28.688Z,96.89
2017-08-01T00:33:28.705Z,96.51
2017-08-01T00:34:28.739Z,96.17
2017-08-01T00:35:28.748Z,95.74
2017-08-01T00:36:28.793Z,95.69
2017-08-01T00:37:28.511Z,94.92
2017-08-01T00:38:28.838Z,95.31
2017-08-01T00:39:28.855Z,95.59
2017-08-01T00:40:28.900Z,95.5
2017-08-01T00:41:28.923Z,95.31
2017-08-01T00:42:43.540Z,94.54
2017-08-01T00:43:28.975Z,94.54
2017-08-01T00:44:28.982Z,94.34
2017-08-01T00:45:29.024Z,93.96
2017-08-01T00:46:29.038Z,93.66
2017-08-01T00:47:29.073Z,93.66
2017-08-01T00:48:29.105Z,94.06
2017-08-01T00:49:29.124Z,93.66
2017-08-01T00:50:29.153Z,94.54
2017-08-01T00:51:29.171Z,95.21
2017-08-01T00:52:29.204Z,95.21
2017-08-01T00:53:28.918Z,95.4
2017-08-01T00:54:29.257Z,95.4
2017-08-01T00:55:29.289Z,95.02
2017-08-01T00:56:29.300Z,94.92
2017-08-01T00:57:29.339Z,95.11
2017-08-01T00:58:43.959Z,95.02
2017-08-01T00:59:29.383Z,94.82
2017-08-01T01:00:29.414Z,94.24
2017-08-01T01:02:29.160Z,95.11
2017-08-01T01:03:29.178Z,95.11
2017-08-01T01:05:29.549Z,95.4
2017-08-01T01:06:29.262Z,95.31
2017-08-01T01:07:29.287Z,95.02
2017-08-01T01:08:29.303Z,95.69
2017-08-01T01:10:29.674Z,95.31
2017-08-01T01:11:29.700Z,95.11
2017-08-01T01:12:29.424Z,95.5
2017-08-01T01:13:29.744Z,94.82
2017-08-01T01:14:44.378Z,95.59
2017-08-01T01:15:29.806Z,95.79
2017-08-01T01:16:29.829Z,95.98
2017-08-01T01:17:29.860Z,96.56
2017-08-01T01:18:29.872Z,96.27
2017-08-01T01:19:29.912Z,95.79
2017-08-01T01:20:29.921Z,95.69
2017-08-01T01:21:29.970Z,95.79
2017-08-01T01:22:29.975Z,95.31
2017-08-01T01:23:30.015Z,95.69
2017-08-01T01:26:30.089Z,96.46
2017-08-01T01:27:30.121Z,96.46
2017-08-01T01:28:30.144Z,96.37
2017-08-01T01:29:44.776Z,96.85
2017-08-01T01:30:30.193Z,96.85
2017-08-01T01:31:30.223Z,97.14
2017-08-01T01:32:30.248Z,96.85
2017-08-01T01:33:30.299Z,97.14
2017-08-01T01:34:30.301Z,97.52
2017-08-01T01:36:30.355Z,97.24
2017-08-01T01:37:30.381Z,97.67
2017-08-01T01:38:30.408Z,97.52
2017-08-01T01:39:30.431Z,97.42
2017-08-01T01:40:30.450Z,96.66
2017-08-01T01:41:30.490Z,96.66
2017-08-01T01:42:30.501Z,95.69
2017-08-01T01:43:30.537Z,95.31
2017-08-01T01:44:30.562Z,95.89
2017-08-01T01:45:30.586Z,96.17
2017-08-01T01:46:30.613Z,96.56
2017-08-01T01:47:30.641Z,98.2
2017-08-01T01:48:30.669Z,98.49
2017-08-01T01:49:30.383Z,97.04
2017-08-01T01:51:30.742Z,96.66
2017-08-01T01:52:30.780Z,97.14
2017-08-01T01:53:30.801Z,96.66
2017-08-01T01:54:30.821Z,97.42
2017-08-01T01:56:30.880Z,98.05
2017-08-01T01:57:30.891Z,99.07
2017-08-01T01:58:30.930Z,99.11
2017-08-01T01:59:30.966Z,98.92
2017-08-01T02:00:30.987Z,99.98
2017-08-01T02:01:45.599Z,99.99
2017-08-01T02:03:31.050Z,99.99
2017-08-01T02:04:31.083Z,99.99
2017-08-01T02:05:31.105Z,99.99
2017-08-01T02:06:31.131Z,99.99
2017-08-01T02:07:31.149Z,99.99
2017-08-01T02:08:31.189Z,99.99
2017-08-01T02:09:30.892Z,99.99
2017-08-01T02:11:31.267Z,99.99
2017-08-01T02:12:31.288Z,99.99
2017-08-01T02:13:31.323Z,99.99
2017-08-01T02:14:31.340Z,99.99
2017-08-01T02:15:31.375Z,99.99
2017-08-01T02:16:31.394Z,99.99
2017-08-01T02:17:46.015Z,99.99
2017-08-01T02:18:31.436Z,99.99
2017-08-01T02:19:31.169Z,99.99
2017-08-01T02:20:31.497Z,99.99
2017-08-01T02:21:31.531Z,99.99
2017-08-01T02:22:31.546Z,99.99
2017-08-01T02:23:31.567Z,99.99
2017-08-01T02:24:31.599Z,99.99
2017-08-01T02:25:31.631Z,99.99
2017-08-01T02:27:31.684Z,99.99
2017-08-01T02:28:31.706Z,99.99
2017-08-01T02:29:31.733Z,99.99
2017-08-01T02:30:31.753Z,99.99
2017-08-01T02:31:31.778Z,99.99
2017-08-01T02:32:31.807Z,99.99
2017-08-01T02:33:46.428Z,99.99
2017-08-01T02:34:31.860Z,99.99
2017-08-01T02:35:31.884Z,99.88
2017-08-01T02:36:31.911Z,99.99
2017-08-01T02:37:31.936Z,99.99
2017-08-01T02:38:31.951Z,99.99
2017-08-01T02:39:31.987Z,99.99
2017-08-01T02:40:31.702Z,99.99
2017-08-01T02:41:32.040Z,99.99
2017-08-01T02:42:32.061Z,99.99
2017-08-01T02:43:32.088Z,99.99
2017-08-01T02:44:32.100Z,99.99
2017-08-01T02:45:32.136Z,99.99
2017-08-01T02:46:32.173Z,99.99
2017-08-01T02:47:32.201Z,99.99
2017-08-01T02:48:31.902Z,99.99
2017-08-01T02:49:46.844Z,99.99
2017-08-01T02:50:32.273Z,99.99
2017-08-01T02:51:32.298Z,99.74
2017-08-01T02:52:32.322Z,99.74
2017-08-01T02:53:32.348Z,99.84
2017-08-01T02:54:32.405Z,99.07
2017-08-01T02:55:32.445Z,98.87
2017-08-01T02:56:32.424Z,98.58
2017-08-01T02:57:32.454Z,99.16
2017-08-01T02:58:32.488Z,98.87
2017-08-01T02:59:32.493Z,99.16
2017-08-01T03:00:32.220Z,99.99
2017-08-01T03:01:32.555Z,99.99
2017-08-01T03:02:32.579Z,99.99
2017-08-01T03:03:32.605Z,99.99
2017-08-01T03:04:47.253Z,99.99
2017-08-01T03:05:32.664Z,99.99
2017-08-01T03:06:32.680Z,99.99
2017-08-01T03:07:32.708Z,99.99
2017-08-01T03:08:32.726Z,99.99
2017-08-01T03:09:32.764Z,99.99
2017-08-01T03:10:32.777Z,99.99
2017-08-01T03:11:32.816Z,99.99
2017-08-01T03:12:32.842Z,99.99
2017-08-01T03:13:32.859Z,99.93
2017-08-01T03:14:32.897Z,99.99
2017-08-01T03:15:32.924Z,99.99
2017-08-01T03:16:32.940Z,99.84
2017-08-01T03:17:32.968Z,99.45
2017-08-01T03:18:32.988Z,99.93
2017-08-01T03:19:33.029Z,99.99
2017-08-01T03:20:33.037Z,99.21
2017-08-01T03:21:33.079Z,99.74
2017-08-01T03:24:33.150Z,99.99
2017-08-01T03:25:33.177Z,99.99
2017-08-01T03:26:33.202Z,99.99
2017-08-01T03:27:33.228Z,99.99
2017-08-01T03:28:33.258Z,99.99
2017-08-01T03:29:33.285Z,99.99
2017-08-01T03:30:33.315Z,99.99
2017-08-01T03:31:33.321Z,99.99
2017-08-01T03:32:33.364Z,99.99
2017-08-01T03:33:33.388Z,99.99
2017-08-01T03:35:33.434Z,99.99
2017-08-01T03:36:48.059Z,99.99
2017-08-01T03:37:33.477Z,99.99
2017-08-01T03:38:33.502Z,99.99
2017-08-01T03:40:33.563Z,99.99
2017-08-01T03:41:33.593Z,99.99
2017-08-01T03:42:33.614Z,99.99
2017-08-01T03:43:33.642Z,99.99
2017-08-01T03:45:33.700Z,99.99
2017-08-01T03:46:33.721Z,99.99
2017-08-01T03:47:33.736Z,99.99
2017-08-01T03:48:33.771Z,99.99
2017-08-01T03:49:33.788Z,99.99
2017-08-01T03:50:33.823Z,99.99
2017-08-01T03:52:48.473Z,99.99
2017-08-01T03:53:33.931Z,99.99
2017-08-01T03:54:33.932Z,99.99
2017-08-01T03:55:33.949Z,99.99
2017-08-01T03:56:33.974Z,99.99
2017-08-01T03:57:33.996Z,99.99
2017-08-01T03:58:34.033Z,99.99
2017-08-01T03:59:34.053Z,99.99
2017-08-01T04:00:34.081Z,99.99
2017-08-01T04:01:34.102Z,99.99
2017-08-01T04:02:34.140Z,99.99
2017-08-01T04:03:34.167Z,99.99
2017-08-01T04:04:34.185Z,99.99
2017-08-01T04:05:34.216Z,99.99
2017-08-01T04:06:33.923Z,99.99
2017-08-01T04:07:33.969Z,99.99
2017-08-01T04:08:48.885Z,99.99
2017-08-01T04:09:34.052Z,99.99
2017-08-01T04:10:34.340Z,99.99
2017-08-01T04:11:34.365Z,99.99
2017-08-01T04:12:34.379Z,99.99
2017-08-01T04:13:34.427Z,99.99
2017-08-01T04:14:34.440Z,99.99
2017-08-01T04:15:34.477Z,99.99
2017-08-01T04:16:34.185Z,99.99
2017-08-01T04:17:34.204Z,99.99
2017-08-01T04:18:34.233Z,99.99
2017-08-01T04:19:34.574Z,99.99
2017-08-01T04:20:34.285Z,99.99
2017-08-01T04:21:34.312Z,99.99
2017-08-01T04:22:34.649Z,99.99
2017-08-01T04:23:34.693Z,99.99
2017-08-01T04:24:49.297Z,99.99
2017-08-01T04:25:34.420Z,99.99
2017-08-01T04:26:34.758Z,99.99
2017-08-01T04:27:34.782Z,99.99
2017-08-01T04:28:34.804Z,99.99
2017-08-01T04:29:34.840Z,99.99
2017-08-01T04:30:34.852Z,99.99
2017-08-01T04:32:34.904Z,99.99
2017-08-01T04:33:34.934Z,99.99
2017-08-01T04:35:34.990Z,99.99
2017-08-01T04:36:35.013Z,99.99
2017-08-01T04:37:35.042Z,99.99
2017-08-01T04:38:35.054Z,99.99
2017-08-01T04:39:49.687Z,99.99
2017-08-01T04:40:35.112Z,99.99
2017-08-01T04:42:35.177Z,99.99
2017-08-01T04:43:35.192Z,99.99
2017-08-01T04:44:35.215Z,99.99
2017-08-01T04:45:35.230Z,99.99
2017-08-01T04:46:35.297Z,99.99
2017-08-01T04:47:35.293Z,99.99
2017-08-01T04:48:35.316Z,99.99
2017-08-01T04:49:35.335Z,99.99
2017-08-01T04:50:35.386Z,99.99
2017-08-01T04:51:35.395Z,99.99
2017-08-01T04:52:35.421Z,99.99
2017-08-01T04:53:35.450Z,99.99
2017-08-01T04:54:35.473Z,99.99
2017-08-01T04:55:35.501Z,99.99
2017-08-01T04:56:35.530Z,99.99
2017-08-01T04:57:35.556Z,99.99
2017-08-01T04:58:35.579Z,99.99
2017-08-01T04:59:35.607Z,99.99
2017-08-01T05:00:35.621Z,99.99
2017-08-01T05:01:35.672Z,99.99
2017-08-01T05:02:35.692Z,99.99
2017-08-01T05:03:35.700Z,99.99
2017-08-01T05:04:35.722Z,99.99
2017-08-01T05:05:35.763Z,99.99
2017-08-01T05:06:35.786Z,99.99
2017-08-01T05:07:35.809Z,99.99
2017-08-01T05:08:35.832Z,99.99
2017-08-01T05:09:35.553Z,99.99
2017-08-01T05:10:35.887Z,99.99
2017-08-01T05:11:50.512Z,99.99
2017-08-01T05:12:35.936Z,99.99
2017-08-01T05:13:35.980Z,99.99
2017-08-01T05:14:36.001Z,99.99
2017-08-01T05:15:36.007Z,99.99
2017-08-01T05:16:36.040Z,99.99
2017-08-01T05:17:36.056Z,99.99
2017-08-01T05:18:36.092Z,99.99
2017-08-01T05:19:36.116Z,99.99
2017-08-01T05:20:36.148Z,99.99
2017-08-01T05:21:35.860Z,99.99
2017-08-01T05:22:36.188Z,99.99
2017-08-01T05:23:36.212Z,99.99
2017-08-01T05:24:36.246Z,99.99
2017-08-01T05:25:36.273Z,99.99
2017-08-01T05:26:36.292Z,99.99
2017-08-01T05:27:50.920Z,99.99
2017-08-01T05:28:36.357Z,99.99
2017-08-01T05:29:36.371Z,99.99
2017-08-01T05:30:36.410Z,99.99
2017-08-01T05:31:36.436Z,99.99
2017-08-01T05:32:36.459Z,99.99
2017-08-01T05:33:36.477Z,99.99
2017-08-01T05:34:36.497Z,99.99
2017-08-01T05:35:36.535Z,99.99
2017-08-01T05:36:36.562Z,99.99
2017-08-01T05:37:36.590Z,99.99
2017-08-01T05:38:36.605Z,99.99
2017-08-01T05:39:36.634Z,99.99
2017-08-01T05:40:36.351Z,99.99
2017-08-01T05:41:36.676Z,99.99
2017-08-01T05:42:36.710Z,99.99
2017-08-01T05:43:51.329Z,99.99
2017-08-01T05:44:36.454Z,99.99
2017-08-01T05:45:36.788Z,99.99
2017-08-01T05:46:36.818Z,99.99
2017-08-01T05:47:36.840Z,99.99
2017-08-01T05:48:36.555Z,99.99
2017-08-01T05:49:36.895Z,99.99
2017-08-01T05:50:36.917Z,99.99
2017-08-01T05:51:36.949Z,99.99
2017-08-01T05:52:36.953Z,99.99
2017-08-01T05:54:37.020Z,99.99
2017-08-01T05:55:37.042Z,99.99
2017-08-01T05:56:37.080Z,99.99
2017-08-01T05:57:37.101Z,99.99
2017-08-01T05:58:37.123Z,99.99
2017-08-01T05:59:51.744Z,99.99
2017-08-01T06:01:36.888Z,99.99
2017-08-01T06:02:37.236Z,99.99
2017-08-01T06:03:36.934Z,99.99
2017-08-01T06:04:36.965Z,99.99
2017-08-01T06:05:37.291Z,99.99
2017-08-01T06:06:37.020Z,99.99
2017-08-01T06:07:37.349Z,99.99
2017-08-01T06:08:37.433Z,99.99
2017-08-01T06:09:37.404Z,99.99
2017-08-01T06:10:37.427Z,99.99
2017-08-01T06:11:37.449Z,99.99
2017-08-01T06:12:37.482Z,99.99
2017-08-01T06:13:37.506Z,99.99
2017-08-01T06:14:52.131Z,99.99
2017-08-01T06:15:37.563Z,99.99
2017-08-01T06:16:37.582Z,99.99
2017-08-01T06:17:37.660Z,99.99
2017-08-01T06:18:37.622Z,99.99
2017-08-01T06:19:37.667Z,99.99
2017-08-01T06:20:37.687Z,99.99
2017-08-01T06:21:37.715Z,99.99
2017-08-01T06:22:37.423Z,99.99
2017-08-01T06:23:37.759Z,99.99
2017-08-01T06:24:37.776Z,99.99
2017-08-01T06:25:37.817Z,99.99
2017-08-01T06:26:37.827Z,99.99
2017-08-01T06:27:37.868Z,99.99
2017-08-01T06:28:37.892Z,99.99
2017-08-01T06:29:37.922Z,99.99
2017-08-01T06:30:37.931Z,99.99
2017-08-01T06:31:37.969Z,99.99
2017-08-01T06:32:37.991Z,99.99
2017-08-01T06:33:38.012Z,99.99
2017-08-01T06:34:38.037Z,99.99
2017-08-01T06:35:38.060Z,99.99
2017-08-01T06:36:38.091Z,99.99
2017-08-01T06:37:38.111Z,99.99
2017-08-01T06:38:38.137Z,99.99
2017-08-01T06:39:38.161Z,99.99
2017-08-01T06:40:38.192Z,99.99
2017-08-01T06:41:38.217Z,99.99
2017-08-01T06:42:38.229Z,99.99
2017-08-01T06:43:38.269Z,99.99
2017-08-01T06:44:38.282Z,99.99
2017-08-01T06:46:52.935Z,99.99
2017-08-01T06:47:38.365Z,99.99
2017-08-01T06:48:38.392Z,99.99
2017-08-01T06:50:38.455Z,99.99
2017-08-01T06:51:38.157Z,99.99
2017-08-01T06:52:38.482Z,99.99
2017-08-01T06:53:38.515Z,99.99
2017-08-01T06:54:38.530Z,99.99
2017-08-01T06:55:38.581Z,99.99
2017-08-01T06:56:38.584Z,99.99
2017-08-01T06:57:38.620Z,99.99
2017-08-01T06:58:38.643Z,99.99
2017-08-01T06:59:38.672Z,99.99
2017-08-01T07:00:38.691Z,99.99
2017-08-01T07:01:38.724Z,99.99
2017-08-01T07:02:53.394Z,99.99
2017-08-01T07:03:38.764Z,99.99
2017-08-01T07:04:38.793Z,99.99
2017-08-01T07:05:38.817Z,99.99
2017-08-01T07:06:38.855Z,99.99
2017-08-01T07:07:38.871Z,99.99
2017-08-01T07:08:39.104Z,99.99
2017-08-01T07:09:38.933Z,99.99
2017-08-01T07:11:38.978Z,99.99
2017-08-01T07:12:39.016Z,99.99
2017-08-01T07:13:39.037Z,99.99
2017-08-01T07:14:39.056Z,99.99
2017-08-01T07:15:39.087Z,97.52
2017-08-01T07:16:39.117Z,93.41
2017-08-01T07:17:39.159Z,91.71
2017-08-01T07:18:53.770Z,90.06
2017-08-01T07:19:39.210Z,89.82
2017-08-01T07:20:39.236Z,89.72
2017-08-01T07:21:39.259Z,88.6
2017-08-01T07:22:39.303Z,86.32
2017-08-01T07:23:39.313Z,85.54
2017-08-01T07:24:39.347Z,84.52
2017-08-01T07:25:39.371Z,85.33
2017-08-01T07:26:39.413Z,81.88
2017-08-01T07:27:39.432Z,81.93
2017-08-01T07:28:39.477Z,82.42
2017-08-01T07:29:39.498Z,82.77
2017-08-01T07:30:39.541Z,84.47
2017-08-01T07:31:39.565Z,84.92
2017-08-01T07:33:39.635Z,86.76
2017-08-01T07:34:54.255Z,85.25
2017-08-01T07:35:39.691Z,82.32
2017-08-01T07:36:39.718Z,82.42
2017-08-01T07:37:39.758Z,79.45
2017-08-01T07:38:39.787Z,78.07
2017-08-01T07:39:39.810Z,74.26
2017-08-01T07:40:39.850Z,75.36
2017-08-01T07:41:39.886Z,72.96
2017-08-01T07:42:39.925Z,73.35
2017-08-01T07:43:39.949Z,74.23
2017-08-01T07:45:40.020Z,69.62
2017-08-01T07:46:40.049Z,68.55
2017-08-01T07:47:40.085Z,69.49
2017-08-01T07:48:40.109Z,69.65
2017-08-01T07:49:54.751Z,74.49
2017-08-01T07:50:40.184Z,73.12
2017-08-01T07:51:40.211Z,72.44
2017-08-01T07:52:40.260Z,71.41
2017-08-01T07:53:40.281Z,72.96
2017-08-01T07:54:40.338Z,72.34
2017-08-01T07:55:40.358Z,75.32
2017-08-01T07:56:40.400Z,75.32
2017-08-01T07:57:40.424Z,76.35
2017-08-01T07:58:40.465Z,76.71
2017-08-01T07:59:40.497Z,75.93
2017-08-01T08:00:40.515Z,75.38
2017-08-01T08:01:40.556Z,74.06
2017-08-01T08:02:40.579Z,72.19
2017-08-01T08:03:40.623Z,73.74
2017-08-01T08:04:40.656Z,74.52
2017-08-01T08:05:40.692Z,73.84
2017-08-01T08:06:40.724Z,75.81
2017-08-01T08:07:40.758Z,76.9
2017-08-01T08:10:40.854Z,79.1
2017-08-01T08:11:40.887Z,78.61
2017-08-01T08:12:40.919Z,77.64
2017-08-01T08:13:40.965Z,78.97
2017-08-01T08:14:40.986Z,79.99
2017-08-01T08:15:41.027Z,80.73
2017-08-01T08:16:40.741Z,81.99
2017-08-01T08:17:40.760Z,83.89
2017-08-01T08:18:41.113Z,82.63
2017-08-01T08:19:41.138Z,82.82
2017-08-01T08:20:41.172Z,81.9
2017-08-01T08:21:55.803Z,82.57
2017-08-01T08:22:40.915Z,83.15
2017-08-01T08:23:41.268Z,83.94
2017-08-01T08:24:41.297Z,80.77
2017-08-01T08:25:41.337Z,77.74
2017-08-01T08:26:41.048Z,75.48
2017-08-01T08:27:41.387Z,74.41
2017-08-01T08:28:41.420Z,72.31
2017-08-01T08:29:41.444Z,71.41
2017-08-01T08:30:41.179Z,70.31
2017-08-01T08:31:41.208Z,68.91
2017-08-01T08:32:41.551Z,67.38
2017-08-01T08:33:41.266Z,65.88
2017-08-01T08:34:41.606Z,69.34
2017-08-01T08:35:41.328Z,65.69
2017-08-01T08:36:41.684Z,68.1
2017-08-01T08:37:56.312Z,67.48
2017-08-01T08:38:41.748Z,65.36
2017-08-01T08:39:41.462Z,63.31
2017-08-01T08:41:41.843Z,62.07
2017-08-01T08:42:41.882Z,61.68
2017-08-01T08:43:41.915Z,61.61
2017-08-01T08:44:41.938Z,61.87
2017-08-01T08:45:41.976Z,63.05
2017-08-01T08:47:41.742Z,64.9
2017-08-01T08:48:42.083Z,63.73
2017-08-01T08:49:42.125Z,64.97
2017-08-01T08:50:42.146Z,65.07
2017-08-01T08:51:42.191Z,66.02
2017-08-01T08:52:42.212Z,64.58
2017-08-01T08:53:56.855Z,63.7
2017-08-01T08:54:42.292Z,64
2017-08-01T08:55:42.323Z,64.48
2017-08-01T08:56:42.361Z,62.76
2017-08-01T08:57:42.389Z,61.9
2017-08-01T08:58:42.421Z,60.24
2017-08-01T09:00:42.503Z,61.16
2017-08-01T09:01:42.533Z,60.7
2017-08-01T09:02:42.560Z,60.99
2017-08-01T09:03:42.291Z,62.36
2017-08-01T09:04:42.319Z,60.6
2017-08-01T09:05:42.667Z,60.99
2017-08-01T09:06:42.700Z,60.27
2017-08-01T09:07:42.727Z,59.98
2017-08-01T09:08:42.755Z,60.6
2017-08-01T09:09:57.396Z,56.9
2017-08-01T09:10:42.836Z,57.62
2017-08-01T09:11:42.865Z,56.86
2017-08-01T09:13:42.933Z,54.36
2017-08-01T09:14:42.973Z,51.54
2017-08-01T09:15:42.696Z,53.31
2017-08-01T09:16:43.034Z,55.35
2017-08-01T09:17:43.087Z,50.66
2017-08-01T09:18:43.118Z,50.73
2017-08-01T09:19:43.150Z,51.15
2017-08-01T09:21:43.219Z,51.34
2017-08-01T09:22:43.247Z,55.18
2017-08-01T09:23:43.281Z,53.73
2017-08-01T09:24:57.916Z,51.54
2017-08-01T09:25:43.356Z,50.85
2017-08-01T09:26:43.074Z,51.42
2017-08-01T09:27:43.421Z,52.86
2017-08-01T09:28:43.463Z,53.58
2017-08-01T09:29:43.483Z,53.94
2017-08-01T09:30:43.523Z,52.84
2017-08-01T09:31:43.560Z,52.45
2017-08-01T09:32:43.599Z,53.82
2017-08-01T09:33:43.620Z,53.72
2017-08-01T09:34:43.661Z,53.45
2017-08-01T09:35:43.695Z,51.42
2017-08-01T09:36:43.426Z,51.25
2017-08-01T09:37:43.456Z,52.59
2017-08-01T09:38:43.807Z,50.73
2017-08-01T09:39:43.823Z,50.46
2017-08-01T09:40:43.870Z,53.77
2017-08-01T09:41:43.585Z,50.04
2017-08-01T09:42:43.948Z,52.65
2017-08-01T09:43:43.989Z,51.76
2017-08-01T09:44:44.010Z,51.67
2017-08-01T09:45:44.047Z,49.92
2017-08-01T09:46:44.077Z,48.67
2017-08-01T09:47:44.123Z,50.44
2017-08-01T09:48:44.148Z,50.81
2017-08-01T09:49:44.190Z,51.32
2017-08-01T09:51:44.262Z,48.45
2017-08-01T09:52:44.283Z,48.55
2017-08-01T09:53:44.324Z,49.43
2017-08-01T09:54:44.346Z,49.04
2017-08-01T09:56:59.028Z,51.37
2017-08-01T09:57:44.461Z,49.7
2017-08-01T09:58:44.496Z,51.03
2017-08-01T09:59:44.213Z,52.59
2017-08-01T10:00:44.554Z,52.59
2017-08-01T10:01:44.599Z,50.46
2017-08-01T10:02:44.633Z,50.95
2017-08-01T10:03:44.700Z,50.37
2017-08-01T10:04:44.704Z,53.21
2017-08-01T10:06:44.773Z,50.32
2017-08-01T10:07:44.805Z,48.94
2017-08-01T10:08:44.840Z,50.42
2017-08-01T10:09:44.876Z,48.67
2017-08-01T10:11:44.949Z,50.59
2017-08-01T10:12:59.578Z,49.43
2017-08-01T10:14:45.053Z,47.69
2017-08-01T10:15:45.081Z,47.88
2017-08-01T10:16:45.129Z,48.94
2017-08-01T10:17:45.139Z,47.78
2017-08-01T10:18:45.183Z,48.84
2017-08-01T10:19:44.902Z,50.07
2017-08-01T10:20:45.247Z,50.29
2017-08-01T10:21:45.289Z,51.69
2017-08-01T10:23:45.354Z,49.11
2017-08-01T10:24:45.393Z,50.56
2017-08-01T10:25:45.430Z,49.68
2017-08-01T10:26:45.462Z,50.85
2017-08-01T10:27:45.482Z,51.42
2017-08-01T10:29:00.130Z,51.22
2017-08-01T10:29:45.561Z,51.25
2017-08-01T10:31:45.630Z,51.05
2017-08-01T10:32:45.670Z,52.03
2017-08-01T10:33:45.713Z,49.08
2017-08-01T10:34:45.724Z,49.87
2017-08-01T10:35:45.456Z,53.55
2017-08-01T10:36:45.803Z,52.76
2017-08-01T10:38:45.868Z,54.68
2017-08-01T10:39:45.900Z,53.57
2017-08-01T10:40:45.941Z,53.96
2017-08-01T10:41:45.961Z,55.04
2017-08-01T10:42:46.009Z,56.38
2017-08-01T10:43:46.033Z,57.76
2017-08-01T10:45:00.670Z,55.31
2017-08-01T10:45:46.093Z,56.95
2017-08-01T10:46:46.136Z,57.01
2017-08-01T10:47:45.868Z,58.06
2017-08-01T10:48:46.207Z,57.6
2017-08-01T10:49:46.240Z,59.33
2017-08-01T10:50:46.265Z,57.09
2017-08-01T10:51:46.313Z,57.09
2017-08-01T10:52:46.336Z,58.94
2017-08-01T10:53:46.374Z,58.16
2017-08-01T10:54:46.409Z,56.6
2017-08-01T10:55:46.437Z,60.21
2017-08-01T10:56:46.480Z,60.21
2017-08-01T10:57:46.507Z,58.45
2017-08-01T10:58:46.538Z,56.6
2017-08-01T11:00:01.172Z,56.2
2017-08-01T11:00:46.604Z,58.62
2017-08-01T11:01:46.628Z,59.23
2017-08-01T11:02:46.674Z,59.11
2017-08-01T11:03:46.700Z,58.45
2017-08-01T11:04:46.746Z,60.86
2017-08-01T11:05:46.771Z,60.41
2017-08-01T11:06:46.806Z,58.65
2017-08-01T11:08:46.867Z,60.47
2017-08-01T11:09:46.587Z,59.89
2017-08-01T11:10:46.947Z,60.89
2017-08-01T11:11:46.960Z,58.72
2017-08-01T11:13:47.033Z,61.35
2017-08-01T11:14:47.061Z,60.86
2017-08-01T11:15:47.101Z,60.8
2017-08-01T11:16:47.132Z,60.6
2017-08-01T11:17:47.146Z,60.31
2017-08-01T11:18:47.186Z,61.19
2017-08-01T11:19:46.915Z,59.23
2017-08-01T11:20:47.250Z,59.04
2017-08-01T11:21:47.332Z,60.11
2017-08-01T11:22:47.016Z,60.5
2017-08-01T11:23:47.346Z,59.43
2017-08-01T11:25:47.420Z,61.77
2017-08-01T11:26:47.454Z,58.94
2017-08-01T11:27:47.487Z,60.31
2017-08-01T11:28:47.519Z,61.38
2017-08-01T11:29:47.546Z,59.14
2017-08-01T11:30:47.567Z,60.99
2017-08-01T11:32:02.210Z,60.31
2017-08-01T11:32:47.652Z,63.73
2017-08-01T11:33:47.678Z,61.19
2017-08-01T11:34:47.738Z,59.53
2017-08-01T11:35:47.740Z,59.43
2017-08-01T11:36:47.774Z,60.41
2017-08-01T11:37:47.790Z,60.6
2017-08-01T11:38:47.840Z,59.04
2017-08-01T11:39:47.875Z,60.21
2017-08-01T11:40:47.897Z,60.6
2017-08-01T11:41:47.618Z,59.56
2017-08-01T11:42:47.953Z,58.84
2017-08-01T11:43:47.985Z,60.7
2017-08-01T11:44:48.024Z,61.19
2017-08-01T11:45:48.058Z,60.41
2017-08-01T11:46:48.097Z,60.7
2017-08-01T11:48:02.721Z,60.08
2017-08-01T11:49:48.181Z,59.69
2017-08-01T11:50:48.214Z,60.57
2017-08-01T11:51:48.257Z,60.77
2017-08-01T11:52:48.274Z,63.02
2017-08-01T11:53:48.309Z,61.97
2017-08-01T11:54:48.343Z,60.41
2017-08-01T11:56:48.410Z,61.74
2017-08-01T11:58:48.474Z,60.6
2017-08-01T11:59:48.241Z,61.58
2017-08-01T12:00:48.531Z,62.26
2017-08-01T12:01:48.573Z,59.56
2017-08-01T12:02:48.610Z,60.89
2017-08-01T12:04:04.432Z,61.61
2017-08-01T12:04:48.659Z,60.37
2017-08-01T12:05:48.698Z,59.98
2017-08-01T12:06:48.408Z,59.66
2017-08-01T12:07:48.752Z,58.68
2017-08-01T12:08:48.786Z,60.14
2017-08-01T12:09:48.826Z,59.56
2017-08-01T12:10:48.854Z,59.36
2017-08-01T12:11:48.879Z,60.31
2017-08-01T12:12:48.912Z,59.56
2017-08-01T12:13:48.939Z,60.93
2017-08-01T12:14:48.975Z,59.27
2017-08-01T12:15:49.001Z,59.27
2017-08-01T12:16:49.053Z,59.23
2017-08-01T12:17:49.076Z,61.29
2017-08-01T12:18:49.102Z,60.05
2017-08-01T12:20:03.741Z,59.95
2017-08-01T12:20:49.171Z,59.36
2017-08-01T12:21:49.195Z,58.87
2017-08-01T12:22:49.234Z,59.33
2017-08-01T12:23:49.257Z,61.8
2017-08-01T12:24:49.288Z,61.51
2017-08-01T12:25:49.319Z,61.02
2017-08-01T12:26:49.057Z,59.27
2017-08-01T12:27:49.394Z,59.75
2017-08-01T12:28:49.416Z,59.66
2017-08-01T12:29:49.456Z,59.36
2017-08-01T12:30:49.481Z,60.5
2017-08-01T12:31:49.520Z,61.87
2017-08-01T12:32:49.552Z,59.85
2017-08-01T12:33:49.591Z,61.12
2017-08-01T12:35:04.215Z,60.24
2017-08-01T12:35:49.645Z,60.24
2017-08-01T12:36:49.672Z,60.11
2017-08-01T12:37:49.698Z,61.38
2017-08-01T12:38:49.742Z,60.99
2017-08-01T12:39:49.774Z,61.48
2017-08-01T12:41:49.522Z,62.85
2017-08-01T12:42:49.561Z,62.39
2017-08-01T12:43:49.583Z,60.83
2017-08-01T12:44:49.621Z,60.7
2017-08-01T12:45:49.645Z,61.12
2017-08-01T12:46:49.689Z,61.58
2017-08-01T12:47:50.019Z,60.11
2017-08-01T12:48:49.738Z,60.99
2017-08-01T12:49:50.084Z,61.48
2017-08-01T12:50:49.813Z,60.41
2017-08-01T12:51:50.150Z,60.96
2017-08-01T12:52:49.865Z,61.06
2017-08-01T12:53:50.214Z,60.41
2017-08-01T12:54:50.241Z,60.41
2017-08-01T12:55:49.968Z,60.38
2017-08-01T12:56:50.300Z,59.99
2017-08-01T12:57:50.338Z,60.21
2017-08-01T12:58:50.053Z,61.84
2017-08-01T12:59:50.090Z,60.77
2017-08-01T13:00:50.437Z,61.87
2017-08-01T13:01:50.472Z,61.48
2017-08-01T13:02:50.486Z,62.46
2017-08-01T13:03:50.528Z,61.51
2017-08-01T13:04:50.549Z,61.9
2017-08-01T13:05:50.589Z,60.44
2017-08-01T13:07:05.231Z,61.02
2017-08-01T13:07:50.652Z,60.17
2017-08-01T13:08:50.384Z,60.27
2017-08-01T13:09:50.400Z,59.75
2017-08-01T13:10:50.434Z,58.68
2017-08-01T13:11:50.467Z,58.31
2017-08-01T13:12:50.811Z,59.56
2017-08-01T13:13:50.533Z,58.68
2017-08-01T13:14:50.875Z,60.14
2017-08-01T13:15:50.598Z,58.58
2017-08-01T13:16:50.936Z,59.36
2017-08-01T13:17:50.968Z,59.56
2017-08-01T13:18:50.994Z,58.22
2017-08-01T13:19:51.032Z,59.36
2017-08-01T13:20:50.742Z,59.07
2017-08-01T13:21:51.094Z,58.51
2017-08-01T13:23:05.727Z,58.7
2017-08-01T13:23:51.154Z,58.64
2017-08-01T13:24:51.196Z,60.72
2017-08-01T13:26:51.245Z,58.27
2017-08-01T13:28:51.004Z,57.88
2017-08-01T13:29:51.348Z,57.78
2017-08-01T13:30:51.370Z,58.69
2017-08-01T13:31:51.417Z,57.12
2017-08-01T13:32:51.448Z,57.59
2017-08-01T13:33:51.465Z,59.64
2017-08-01T13:34:51.505Z,57
2017-08-01T13:35:51.524Z,59.45
2017-08-01T13:36:51.572Z,58.44
2017-08-01T13:37:51.599Z,60.69
2017-08-01T13:39:06.230Z,59.74
2017-08-01T13:39:51.667Z,59.52
2017-08-01T13:40:51.690Z,59.94
2017-08-01T13:41:51.726Z,60.42
2017-08-01T13:42:51.765Z,60.4
2017-08-01T13:43:51.792Z,60.5
2017-08-01T13:44:51.826Z,60.6
2017-08-01T13:45:51.842Z,61.18
2017-08-01T13:46:51.890Z,61.96
2017-08-01T13:48:51.958Z,59.12
2017-08-01T13:49:51.984Z,58.83